createdAt,value
2023-05-01T00:00:16.643Z,63.80
2023-05-01T00:02:43.499Z,64.10
2023-05-01T00:05:10.368Z,64.00
2023-05-01T00:07:37.235Z,64.20
2023-05-01T00:10:04.130Z,64.30
2023-05-01T00:12:30.844Z,64.50
2023-05-01T00:14:57.572Z,64.60
2023-05-01T00:17:24.342Z,64.70
2023-05-01T00:19:54.517Z,64.80
2023-05-01T00:22:21.628Z,65.10
2023-05-01T00:24:48.362Z,65.20
2023-05-01T00:27:15.057Z,65.20
2023-05-01T00:29:41.776Z,65.20
2023-05-01T00:32:08.572Z,65.50
2023-05-01T00:34:35.443Z,65.60
2023-05-01T00:37:02.325Z,65.70
2023-05-01T00:39:29.008Z,65.70
2023-05-01T00:41:55.741Z,65.90
2023-05-01T00:44:22.624Z,65.90
2023-05-01T00:46:49.876Z,66.00
2023-05-01T00:49:16.646Z,66.80
2023-05-01T00:51:43.360Z,65.90
2023-05-01T00:54:10.336Z,66.00
2023-05-01T00:56:37.053Z,66.00
2023-05-01T00:59:03.747Z,66.10
2023-05-01T01:01:30.480Z,66.10
2023-05-01T01:03:57.287Z,66.10
2023-05-01T01:06:43.043Z,66.00
2023-05-01T01:09:16.860Z,66.30
2023-05-01T01:12:02.110Z,66.40
2023-05-01T01:14:42.621Z,66.60
2023-05-01T01:17:32.731Z,66.60
2023-05-01T01:20:30.614Z,66.60
2023-05-01T01:23:11.853Z,66.70
2023-05-01T01:26:05.026Z,66.70
2023-05-01T01:28:32.760Z,66.70
2023-05-01T01:31:13.102Z,66.40
2023-05-01T01:33:49.689Z,66.60
2023-05-01T01:36:21.222Z,66.60
2023-05-01T01:39:00.953Z,66.60
2023-05-01T01:41:31.518Z,66.80
2023-05-01T01:44:07.742Z,66.90
2023-05-01T01:46:37.107Z,67.00
2023-05-01T01:49:06.551Z,66.90
2023-05-01T01:51:33.230Z,67.10
2023-05-01T01:53:59.925Z,67.10
2023-05-01T01:56:26.678Z,67.10
2023-05-01T01:58:53.376Z,67.20
2023-05-01T02:01:20.296Z,67.30
2023-05-01T02:03:47.301Z,67.40
2023-05-01T02:06:17.039Z,67.40
2023-05-01T02:08:44.214Z,67.40
2023-05-01T02:11:51.031Z,67.40
2023-05-01T02:14:18.812Z,67.60
2023-05-01T02:16:45.513Z,67.40
2023-05-01T02:19:13.338Z,67.70
2023-05-01T02:21:40.952Z,67.70
2023-05-01T02:24:07.900Z,67.80
2023-05-01T02:26:38.488Z,67.90
2023-05-01T02:29:05.205Z,68.00
2023-05-01T02:31:32.205Z,67.90
2023-05-01T02:33:59.103Z,68.00
2023-05-01T02:36:29.107Z,68.20
2023-05-01T02:38:55.848Z,68.40
2023-05-01T02:41:22.658Z,68.50
2023-05-01T02:44:01.367Z,68.50
2023-05-01T02:46:28.223Z,68.50
2023-05-01T02:48:55.186Z,68.50
2023-05-01T02:51:22.030Z,68.70
2023-05-01T02:53:48.803Z,68.80
2023-05-01T02:56:15.592Z,68.80
2023-05-01T02:58:42.460Z,68.90
2023-05-01T03:01:09.514Z,69.00
2023-05-01T03:03:37.601Z,69.00
2023-05-01T03:06:04.944Z,69.10
2023-05-01T03:08:32.419Z,69.30
2023-05-01T03:10:59.193Z,69.40
2023-05-01T03:13:26.017Z,69.40
2023-05-01T03:15:52.745Z,69.40
2023-05-01T03:18:19.684Z,69.20
2023-05-01T03:20:57.198Z,69.30
2023-05-01T03:23:23.934Z,69.50
2023-05-01T03:25:51.197Z,69.40
2023-05-01T03:28:17.898Z,69.50
2023-05-01T03:30:44.942Z,69.40
2023-05-01T03:33:11.716Z,69.50
2023-05-01T03:35:38.509Z,69.50
2023-05-01T03:38:05.271Z,69.60
2023-05-01T03:40:32.436Z,69.70
2023-05-01T03:42:59.143Z,69.80
2023-05-01T03:45:25.880Z,69.80
2023-05-01T03:47:52.681Z,69.90
2023-05-01T03:50:19.398Z,70.00
2023-05-01T03:52:46.976Z,70.00
2023-05-01T03:55:13.747Z,70.10
2023-05-01T03:57:40.895Z,70.10
2023-05-01T04:00:08.427Z,70.20
2023-05-01T04:02:35.284Z,70.30
2023-05-01T04:05:02.020Z,70.50
2023-05-01T04:07:28.710Z,70.60
2023-05-01T04:09:55.521Z,70.60
2023-05-01T04:12:22.357Z,70.60
2023-05-01T04:14:49.257Z,70.60
2023-05-01T04:17:15.984Z,70.60
2023-05-01T04:19:42.737Z,70.50
2023-05-01T04:22:09.474Z,70.50
2023-05-01T04:24:36.331Z,70.60
2023-05-01T04:27:03.045Z,70.50
2023-05-01T04:29:30.610Z,70.60
2023-05-01T04:31:57.582Z,70.60
2023-05-01T04:34:25.376Z,70.60
2023-05-01T04:36:52.307Z,70.70
2023-05-01T04:39:20.458Z,70.70
2023-05-01T04:41:47.440Z,70.70
2023-05-01T04:44:14.250Z,70.80
2023-05-01T04:46:41.091Z,70.70
2023-05-01T04:49:07.859Z,70.70
2023-05-01T04:51:34.691Z,70.80
2023-05-01T04:54:01.389Z,70.80
2023-05-01T04:56:33.750Z,71.00
2023-05-01T04:59:00.765Z,71.00
2023-05-01T05:01:27.518Z,71.20
2023-05-01T05:03:54.505Z,71.10
2023-05-01T05:06:21.450Z,71.20
2023-05-01T05:08:48.236Z,71.30
2023-05-01T05:11:14.975Z,71.30
2023-05-01T05:13:41.678Z,71.40
2023-05-01T05:16:08.376Z,71.40
2023-05-01T05:18:35.076Z,71.40
2023-05-01T05:21:06.410Z,71.40
2023-05-01T05:23:33.099Z,71.60
2023-05-01T05:26:00.048Z,71.60
2023-05-01T05:28:27.363Z,71.50
2023-05-01T05:30:55.555Z,71.60
2023-05-01T05:33:22.441Z,71.50
2023-05-01T05:35:49.260Z,71.50
2023-05-01T05:38:16.080Z,71.50
2023-05-01T05:40:45.702Z,71.40
2023-05-01T05:43:12.513Z,71.40
2023-05-01T05:45:40.380Z,71.50
2023-05-01T05:48:07.281Z,71.50
2023-05-01T05:50:34.031Z,71.60
2023-05-01T05:53:00.707Z,71.50
2023-05-01T05:55:27.611Z,71.50
2023-05-01T05:57:54.387Z,71.50
2023-05-01T06:00:21.171Z,71.60
2023-05-01T06:02:47.974Z,71.60
2023-05-01T06:05:14.744Z,71.60
2023-05-01T06:07:41.735Z,71.60
2023-05-01T06:10:09.240Z,71.70
2023-05-01T06:12:37.885Z,71.70
2023-05-01T06:15:11.758Z,71.60
2023-05-01T06:17:38.629Z,71.60
2023-05-01T06:20:05.852Z,71.50
2023-05-01T06:22:32.580Z,71.40
2023-05-01T06:24:59.258Z,71.20
2023-05-01T06:27:26.001Z,71.10
2023-05-01T06:29:53.731Z,71.30
2023-05-01T06:32:22.033Z,71.40
2023-05-01T06:34:49.596Z,71.40
2023-05-01T06:37:16.391Z,71.50
2023-05-01T06:39:43.435Z,71.40
2023-05-01T06:42:10.455Z,71.30
2023-05-01T06:44:37.237Z,71.30
2023-05-01T06:47:04.411Z,71.20
2023-05-01T06:49:31.289Z,71.10
2023-05-01T06:51:58.412Z,70.90
2023-05-01T06:54:25.181Z,70.90
2023-05-01T06:56:55.124Z,70.70
2023-05-01T06:59:21.785Z,71.30
2023-05-01T07:01:48.583Z,70.40
2023-05-01T07:04:15.311Z,70.40
2023-05-01T07:06:49.234Z,70.30
2023-05-01T07:09:16.004Z,70.30
2023-05-01T07:11:43.054Z,70.40
2023-05-01T07:14:09.836Z,70.30
2023-05-01T07:16:36.858Z,70.30
2023-05-01T07:19:04.236Z,70.10
2023-05-01T07:21:30.950Z,70.10
2023-05-01T07:23:58.411Z,70.00
2023-05-01T07:26:26.624Z,69.90
2023-05-01T07:28:53.352Z,69.90
2023-05-01T07:31:20.065Z,69.60
2023-05-01T07:33:46.763Z,69.60
2023-05-01T07:36:13.518Z,69.60
2023-05-01T07:38:40.330Z,69.40
2023-05-01T07:41:07.630Z,69.40
2023-05-01T07:43:34.383Z,69.20
2023-05-01T07:46:01.673Z,69.20
2023-05-01T07:48:28.853Z,69.20
2023-05-01T07:50:56.237Z,69.20
2023-05-01T07:53:22.973Z,69.20
2023-05-01T07:55:49.953Z,69.20
2023-05-01T07:58:17.380Z,69.20
2023-05-01T08:00:44.488Z,69.20
2023-05-01T08:03:11.853Z,69.20
2023-05-01T08:05:44.542Z,69.30
2023-05-01T08:08:14.092Z,69.40
2023-05-01T08:10:40.948Z,69.40
2023-05-01T08:13:07.906Z,69.40
2023-05-01T08:15:34.869Z,69.40
2023-05-01T08:18:02.473Z,69.50
2023-05-01T08:20:29.314Z,69.50
2023-05-01T08:22:56.011Z,69.40
2023-05-01T08:28:20.172Z,69.20
2023-05-01T08:33:32.234Z,69.10
2023-05-01T08:38:39.755Z,69.40
2023-05-01T08:43:43.789Z,69.50
2023-05-01T08:46:18.150Z,69.50
2023-05-01T08:48:44.906Z,69.50
2023-05-01T08:51:19.089Z,69.50
2023-05-01T08:53:47.409Z,69.40
2023-05-01T08:56:20.080Z,69.40
2023-05-01T08:58:47.301Z,69.20
2023-05-01T09:01:22.064Z,69.00
2023-05-01T09:03:49.959Z,68.80
2023-05-01T09:06:23.086Z,68.60
2023-05-01T09:08:49.930Z,68.40
2023-05-01T09:11:23.089Z,68.20
2023-05-01T09:13:52.501Z,68.00
2023-05-01T09:16:19.682Z,67.60
2023-05-01T09:18:46.527Z,67.30
2023-05-01T09:21:21.092Z,67.10
2023-05-01T09:23:50.951Z,66.70
2023-05-01T09:26:24.407Z,66.40
2023-05-01T09:28:51.312Z,66.40
2023-05-01T09:31:24.134Z,66.40
2023-05-01T09:33:55.474Z,66.30
2023-05-01T09:36:26.783Z,66.40
2023-05-01T09:38:53.688Z,66.50
2023-05-01T09:41:28.494Z,66.70
2023-05-01T09:43:56.480Z,66.70
2023-05-01T09:46:24.512Z,66.40
2023-05-01T09:49:01.674Z,66.00
2023-05-01T09:51:29.636Z,65.40
2023-05-01T09:54:03.680Z,65.90
2023-05-01T09:56:31.624Z,64.70
2023-05-01T09:58:59.733Z,64.00
2023-05-01T10:01:45.864Z,63.60
2023-05-01T10:04:12.853Z,63.30
2023-05-01T10:06:39.854Z,63.30
2023-05-01T10:09:11.355Z,63.60
2023-05-01T10:11:50.399Z,64.00
2023-05-01T10:14:17.116Z,64.20
2023-05-01T10:19:11.379Z,64.90
2023-05-01T10:21:38.206Z,65.00
2023-05-01T10:24:05.140Z,64.90
2023-05-01T10:26:34.919Z,65.70
2023-05-01T10:29:01.981Z,64.90
2023-05-01T10:31:28.795Z,64.90
2023-05-01T10:33:56.876Z,64.70
2023-05-01T10:39:34.483Z,63.80
2023-05-01T10:42:05.456Z,63.80
2023-05-01T10:44:32.583Z,63.80
2023-05-01T10:46:59.398Z,64.00
2023-05-01T10:49:26.108Z,63.90
2023-05-01T10:51:58.514Z,64.00
2023-05-01T10:54:26.348Z,63.70
2023-05-01T10:56:56.111Z,63.40
2023-05-01T10:59:25.238Z,63.10
2023-05-01T11:01:59.155Z,62.80
2023-05-01T11:04:45.187Z,62.50
2023-05-01T11:07:15.678Z,62.40
2023-05-01T11:09:43.002Z,62.30
2023-05-01T11:12:11.838Z,61.90
2023-05-01T11:14:54.127Z,61.50
2023-05-01T11:17:40.242Z,60.30
2023-05-01T11:20:10.643Z,59.40
2023-05-01T11:22:38.638Z,58.90
2023-05-01T11:25:17.325Z,58.70
2023-05-01T11:27:55.177Z,58.40
2023-05-01T11:30:22.051Z,57.40
2023-05-01T11:32:49.415Z,57.10
2023-05-01T11:35:23.905Z,56.00
2023-05-01T11:37:50.801Z,55.20
2023-05-01T11:43:02.812Z,54.00
2023-05-01T11:47:57.599Z,53.50
2023-05-01T11:53:16.191Z,52.40
2023-05-01T11:58:18.300Z,51.50
2023-05-01T12:03:20.704Z,52.30
2023-05-01T12:08:23.102Z,52.60
2023-05-01T12:13:26.018Z,50.10
2023-05-01T12:18:28.275Z,49.20
2023-05-01T12:23:37.019Z,50.10
2023-05-01T12:28:39.087Z,50.90
2023-05-01T12:33:41.236Z,51.60
2023-05-01T12:38:53.208Z,52.10
2023-05-01T12:44:03.997Z,52.50
2023-05-01T12:46:30.654Z,52.90
2023-05-01T12:48:57.515Z,52.90
2023-05-01T12:53:57.093Z,52.30
2023-05-01T12:58:53.771Z,51.60
2023-05-01T13:03:56.013Z,51.80
2023-05-01T13:09:00.255Z,52.50
2023-05-01T13:13:59.417Z,52.80
2023-05-01T13:18:57.628Z,53.10
2023-05-01T13:23:59.583Z,52.30
2023-05-01T13:28:59.748Z,51.70
2023-05-01T13:33:59.646Z,50.00
2023-05-01T13:38:57.504Z,48.80
2023-05-01T13:43:58.772Z,47.60
2023-05-01T13:48:56.780Z,48.90
2023-05-01T13:53:58.913Z,48.20
2023-05-01T13:58:55.005Z,48.40
2023-05-01T14:03:56.793Z,47.10
2023-05-01T14:08:58.934Z,45.90
2023-05-01T14:14:00.060Z,45.30
2023-05-01T14:38:17.501Z,44.40
2023-05-01T14:40:45.512Z,44.90
2023-05-01T14:43:19.662Z,45.10
2023-05-01T14:45:46.683Z,45.10
2023-05-01T14:48:24.980Z,45.30
2023-05-01T14:51:00.777Z,45.20
2023-05-01T14:53:31.530Z,45.30
2023-05-01T14:55:58.300Z,44.80
2023-05-01T14:58:25.041Z,44.60
2023-05-01T15:00:51.827Z,44.70
2023-05-01T15:03:18.693Z,45.10
2023-05-01T15:05:46.261Z,45.40
2023-05-01T15:08:13.099Z,45.90
2023-05-01T15:10:39.856Z,46.30
2023-05-01T15:13:06.626Z,46.90
2023-05-01T15:15:33.701Z,47.30
2023-05-01T15:18:00.756Z,47.70
2023-05-01T15:20:27.704Z,48.00
2023-05-01T15:22:55.129Z,48.20
2023-05-01T15:25:21.890Z,48.50
2023-05-01T15:27:48.830Z,48.50
2023-05-01T15:30:15.556Z,48.60
2023-05-01T15:32:42.502Z,48.60
2023-05-01T15:35:09.442Z,48.60
2023-05-01T15:37:36.264Z,48.70
2023-05-01T15:40:03.771Z,48.50
2023-05-01T15:42:30.690Z,48.50
2023-05-01T15:44:57.680Z,48.40
2023-05-01T15:47:24.649Z,48.30
2023-05-01T15:49:51.681Z,48.30
2023-05-01T15:52:18.424Z,48.30
2023-05-01T15:54:46.453Z,48.50
2023-05-01T15:57:13.947Z,48.50
2023-05-01T15:59:40.804Z,48.60
2023-05-01T16:02:07.778Z,48.50
2023-05-01T16:04:34.878Z,48.30
2023-05-01T16:07:02.526Z,47.90
2023-05-01T16:09:30.617Z,47.60
2023-05-01T16:11:57.471Z,47.40
2023-05-01T16:14:24.310Z,47.20
2023-05-01T16:16:51.237Z,47.10
2023-05-01T16:19:17.968Z,47.10
2023-05-01T16:21:44.772Z,47.10
2023-05-01T16:24:11.514Z,47.10
2023-05-01T16:26:39.132Z,47.10
2023-05-01T16:29:06.475Z,47.10
2023-05-01T16:31:38.804Z,47.10
2023-05-01T16:34:06.710Z,47.10
2023-05-01T16:36:36.602Z,47.00
2023-05-01T16:39:04.181Z,46.90
2023-05-01T16:41:31.982Z,47.00
2023-05-01T16:43:59.009Z,47.30
2023-05-01T16:46:25.893Z,47.50
2023-05-01T16:48:52.615Z,47.80
2023-05-01T16:51:19.330Z,48.00
2023-05-01T16:53:46.258Z,48.20
2023-05-01T16:56:13.009Z,48.50
2023-05-01T16:58:39.728Z,48.70
2023-05-01T17:01:06.460Z,48.80
2023-05-01T17:03:33.325Z,49.00
2023-05-01T17:06:00.192Z,49.20
2023-05-01T17:08:27.012Z,49.40
2023-05-01T17:10:53.751Z,49.60
2023-05-01T17:13:23.418Z,49.70
2023-05-01T17:15:51.260Z,50.00
2023-05-01T17:18:18.097Z,49.90
2023-05-01T17:20:44.778Z,50.00
2023-05-01T17:23:11.452Z,50.00
2023-05-01T17:25:38.193Z,50.00
2023-05-01T17:28:05.059Z,49.90
2023-05-01T17:30:31.800Z,49.90
2023-05-01T17:32:58.662Z,50.00
2023-05-01T17:35:25.512Z,50.10
2023-05-01T17:37:52.273Z,50.30
2023-05-01T17:40:19.112Z,50.50
2023-05-01T17:42:45.798Z,50.60
2023-05-01T17:45:13.004Z,50.70
2023-05-01T17:47:39.722Z,50.90
2023-05-01T17:50:07.767Z,51.00
2023-05-01T17:52:34.508Z,51.20
2023-05-01T17:55:01.243Z,51.30
2023-05-01T17:57:27.962Z,51.50
2023-05-01T17:59:54.691Z,51.60
2023-05-01T18:02:21.645Z,51.60
2023-05-01T18:04:48.403Z,51.80
2023-05-01T18:07:15.210Z,51.90
2023-05-01T18:09:41.940Z,51.90
2023-05-01T18:12:08.646Z,52.00
2023-05-01T18:14:35.355Z,52.70
2023-05-01T18:17:02.245Z,52.10
2023-05-01T18:19:28.992Z,52.20
2023-05-01T18:21:55.708Z,52.30
2023-05-01T18:24:22.427Z,52.40
2023-05-01T18:26:49.110Z,52.60
2023-05-01T18:29:15.842Z,52.70
2023-05-01T18:31:42.654Z,52.80
2023-05-01T18:34:09.359Z,52.90
2023-05-01T18:36:36.147Z,52.90
2023-05-01T18:39:02.880Z,52.90
2023-05-01T18:41:29.583Z,53.00
2023-05-01T18:43:57.808Z,53.00
2023-05-01T18:46:24.970Z,53.10
2023-05-01T18:48:51.869Z,53.20
2023-05-01T18:51:18.594Z,53.30
2023-05-01T18:53:45.274Z,53.50
2023-05-01T18:56:12.054Z,53.70
2023-05-01T18:58:38.730Z,53.80
2023-05-01T19:01:05.977Z,54.00
2023-05-01T19:03:32.728Z,54.20
2023-05-01T19:05:59.434Z,54.30
2023-05-01T19:08:26.162Z,54.60
2023-05-01T19:10:53.184Z,54.70
2023-05-01T19:13:19.876Z,55.00
2023-05-01T19:15:46.607Z,55.20
2023-05-01T19:18:13.358Z,55.50
2023-05-01T19:20:40.178Z,55.60
2023-05-01T19:23:06.907Z,55.90
2023-05-01T19:25:33.611Z,56.10
2023-05-01T19:28:00.624Z,56.30
2023-05-01T19:30:27.621Z,56.50
2023-05-01T19:32:54.613Z,56.60
2023-05-01T19:35:21.447Z,56.80
2023-05-01T19:37:50.642Z,56.90
2023-05-01T19:40:17.802Z,57.10
2023-05-01T19:42:44.597Z,57.20
2023-05-01T19:45:11.429Z,57.30
2023-05-01T19:47:38.209Z,57.40
2023-05-01T19:50:05.274Z,57.60
2023-05-01T19:52:32.001Z,57.70
2023-05-01T19:55:01.002Z,57.80
2023-05-01T19:57:27.713Z,57.90
2023-05-01T19:59:54.420Z,58.00
2023-05-01T20:02:21.315Z,58.10
2023-05-01T20:04:48.186Z,58.30
2023-05-01T20:07:16.282Z,58.50
2023-05-01T20:09:43.950Z,58.60
2023-05-01T20:12:10.672Z,58.80
2023-05-01T20:14:37.367Z,59.00
2023-05-01T20:17:04.356Z,59.10
2023-05-01T20:19:31.190Z,59.20
2023-05-01T20:21:57.936Z,59.30
2023-05-01T20:24:24.708Z,59.30
2023-05-01T20:26:51.459Z,59.40
2023-05-01T20:29:18.143Z,59.40
2023-05-01T20:31:44.873Z,59.60
2023-05-01T20:34:11.702Z,59.70
2023-05-01T20:36:38.414Z,59.80
2023-05-01T20:39:05.164Z,59.90
2023-05-01T20:41:31.858Z,60.00
2023-05-01T20:43:58.563Z,60.00
2023-05-01T20:46:25.313Z,61.00
2023-05-01T20:48:52.040Z,60.30
2023-05-01T20:51:18.734Z,60.40
2023-05-01T20:53:45.547Z,60.30
2023-05-01T20:56:12.254Z,60.30
2023-05-01T20:58:38.994Z,60.40
2023-05-01T21:01:05.673Z,60.30
2023-05-01T21:03:32.906Z,60.30
2023-05-01T21:06:00.368Z,60.40
2023-05-01T21:08:27.414Z,60.40
2023-05-01T21:10:54.578Z,60.30
2023-05-01T21:13:21.395Z,60.30
2023-05-01T21:15:48.230Z,60.20
2023-05-01T21:18:15.202Z,60.10
2023-05-01T21:20:41.922Z,60.20
2023-05-01T21:23:08.661Z,60.10
2023-05-01T21:25:35.347Z,60.00
2023-05-01T21:28:02.403Z,60.90
2023-05-01T21:30:30.699Z,60.00
2023-05-01T21:32:57.519Z,60.10
2023-05-01T21:35:25.981Z,60.00
2023-05-01T21:37:52.741Z,60.10
2023-05-01T21:40:19.540Z,60.10
2023-05-01T21:42:46.277Z,60.10
2023-05-01T21:45:13.905Z,60.20
2023-05-01T21:47:45.856Z,60.20
2023-05-01T21:50:13.820Z,60.40
2023-05-01T21:52:41.359Z,60.30
2023-05-01T21:55:08.922Z,60.40
2023-05-01T21:57:36.251Z,60.50
2023-05-01T22:00:02.968Z,60.60
2023-05-01T22:02:34.980Z,60.70
2023-05-01T22:05:01.799Z,60.90
2023-05-01T22:07:28.520Z,60.90
2023-05-01T22:09:55.274Z,61.00
2023-05-01T22:12:22.134Z,61.20
2023-05-01T22:14:48.885Z,61.40
2023-05-01T22:17:15.585Z,61.50
2023-05-01T22:19:42.344Z,61.60
2023-05-01T22:22:09.052Z,61.80
2023-05-01T22:24:38.541Z,61.90
2023-05-01T22:27:05.256Z,61.90
2023-05-01T22:29:32.180Z,62.10
2023-05-01T22:31:58.896Z,62.20
2023-05-01T22:34:25.609Z,62.30
2023-05-01T22:36:52.354Z,62.40
2023-05-01T22:39:19.092Z,62.40
2023-05-01T22:41:45.856Z,62.60
2023-05-01T22:44:12.616Z,62.60
2023-05-01T22:46:39.333Z,62.60
2023-05-01T22:49:06.010Z,62.60
2023-05-01T22:51:32.711Z,62.70
2023-05-01T22:53:59.418Z,62.80
2023-05-01T22:56:26.146Z,62.90
2023-05-01T22:58:52.892Z,62.90
2023-05-01T23:01:19.658Z,62.90
2023-05-01T23:03:46.629Z,63.00
2023-05-01T23:06:13.545Z,63.10
2023-05-01T23:08:40.392Z,63.20
2023-05-01T23:11:07.083Z,63.30
2023-05-01T23:13:33.792Z,63.50
2023-05-01T23:16:00.526Z,63.40
2023-05-01T23:18:31.288Z,63.70
2023-05-01T23:20:58.006Z,63.90
2023-05-01T23:23:28.992Z,63.90
2023-05-01T23:25:55.728Z,64.10
2023-05-01T23:28:23.520Z,64.10
2023-05-01T23:30:54.931Z,64.20
2023-05-01T23:33:23.833Z,64.30
2023-05-01T23:35:50.665Z,64.60
2023-05-01T23:38:17.377Z,64.60
2023-05-01T23:40:44.745Z,64.70
2023-05-01T23:43:12.186Z,64.90
2023-05-01T23:45:39.650Z,65.00
2023-05-01T23:48:06.783Z,65.00
2023-05-01T23:50:33.568Z,65.00
2023-05-01T23:53:02.353Z,65.20
2023-05-01T23:55:29.064Z,65.20
2023-05-01T23:57:55.779Z,65.20
